sensor_id;sensor_type;location;lat;lon;timestamp;P1;durP1;ratioP1;P2;durP2;ratioP2
10467;SDS011;5281;48.878;9.394;2024-03-17T00:00:59;7.87;;;6.23;;
10467;SDS011;5281;48.878;9.394;2024-03-17T00:03:25;7.10;;;6.07;;
10467;SDS011;5281;48.878;9.394;2024-03-17T00:05:56;10.30;;;6.07;;
10467;SDS011;5281;48.878;9.394;2024-03-17T00:08:22;7.73;;;6.27;;
10467;SDS011;5281;48.878;9.394;2024-03-17T00:10:49;9.03;;;6.93;;
10467;SDS011;5281;48.878;9.394;2024-03-17T00:13:15;8.40;;;6.67;;
10467;SDS011;5281;48.878;9.394;2024-03-17T00:15:42;6.50;;;5.70;;
10467;SDS011;5281;48.878;9.394;2024-03-17T00:18:08;9.00;;;6.30;;
10467;SDS011;5281;48.878;9.394;2024-03-17T00:20:36;6.93;;;5.60;;
10467;SDS011;5281;48.878;9.394;2024-03-17T00:23:03;8.40;;;5.90;;
10467;SDS011;5281;48.878;9.394;2024-03-17T00:25:31;5.80;;;5.20;;
10467;SDS011;5281;48.878;9.394;2024-03-17T00:27:57;7.47;;;5.53;;
10467;SDS011;5281;48.878;9.394;2024-03-17T00:30:23;8.13;;;6.53;;
10467;SDS011;5281;48.878;9.394;2024-03-17T00:32:49;6.77;;;5.43;;
10467;SDS011;5281;48.878;9.394;2024-03-17T00:35:16;5.93;;;4.87;;
10467;SDS011;5281;48.878;9.394;2024-03-17T00:37:45;6.37;;;5.43;;
10467;SDS011;5281;48.878;9.394;2024-03-17T00:40:14;6.03;;;5.23;;
10467;SDS011;5281;48.878;9.394;2024-03-17T00:42:39;6.13;;;5.13;;
10467;SDS011;5281;48.878;9.394;2024-03-17T00:45:07;5.93;;;5.30;;
10467;SDS011;5281;48.878;9.394;2024-03-17T00:47:33;9.30;;;6.80;;
10467;SDS011;5281;48.878;9.394;2024-03-17T00:49:59;7.97;;;6.83;;
10467;SDS011;5281;48.878;9.394;2024-03-17T00:52:25;8.87;;;6.47;;
10467;SDS011;5281;48.878;9.394;2024-03-17T00:54:52;9.77;;;6.30;;
10467;SDS011;5281;48.878;9.394;2024-03-17T00:57:20;6.90;;;6.20;;
10467;SDS011;5281;48.878;9.394;2024-03-17T00:59:47;6.57;;;5.90;;
10467;SDS011;5281;48.878;9.394;2024-03-17T01:02:12;8.20;;;6.30;;
10467;SDS011;5281;48.878;9.394;2024-03-17T01:04:41;7.00;;;6.30;;
10467;SDS011;5281;48.878;9.394;2024-03-17T01:07:08;7.47;;;6.20;;
10467;SDS011;5281;48.878;9.394;2024-03-17T01:09:35;7.20;;;6.50;;
10467;SDS011;5281;48.878;9.394;2024-03-17T01:12:01;6.27;;;5.33;;
10467;SDS011;5281;48.878;9.394;2024-03-17T01:14:29;8.00;;;5.90;;
10467;SDS011;5281;48.878;9.394;2024-03-17T01:16:55;6.10;;;5.50;;
10467;SDS011;5281;48.878;9.394;2024-03-17T01:19:22;6.20;;;5.60;;
10467;SDS011;5281;48.878;9.394;2024-03-17T01:21:48;8.30;;;5.70;;
10467;SDS011;5281;48.878;9.394;2024-03-17T01:24:15;6.10;;;5.50;;
10467;SDS011;5281;48.878;9.394;2024-03-17T01:26:41;5.47;;;4.97;;
10467;SDS011;5281;48.878;9.394;2024-03-17T01:29:08;6.27;;;5.27;;
10467;SDS011;5281;48.878;9.394;2024-03-17T01:31:35;7.00;;;5.87;;
10467;SDS011;5281;48.878;9.394;2024-03-17T01:34:02;8.17;;;5.47;;
10467;SDS011;5281;48.878;9.394;2024-03-17T01:36:28;9.80;;;6.50;;
10467;SDS011;5281;48.878;9.394;2024-03-17T01:38:55;6.40;;;5.60;;
10467;SDS011;5281;48.878;9.394;2024-03-17T01:41:20;10.67;;;6.40;;
10467;SDS011;5281;48.878;9.394;2024-03-17T01:43:48;8.97;;;6.90;;
10467;SDS011;5281;48.878;9.394;2024-03-17T01:46:14;8.17;;;6.60;;
10467;SDS011;5281;48.878;9.394;2024-03-17T01:48:44;8.47;;;6.70;;
10467;SDS011;5281;48.878;9.394;2024-03-17T01:51:11;7.93;;;6.60;;
10467;SDS011;5281;48.878;9.394;2024-03-17T01:53:40;7.67;;;6.60;;
10467;SDS011;5281;48.878;9.394;2024-03-17T01:56:07;9.57;;;6.77;;
10467;SDS011;5281;48.878;9.394;2024-03-17T01:58:35;8.27;;;6.13;;
10467;SDS011;5281;48.878;9.394;2024-03-17T02:01:03;6.53;;;5.80;;
10467;SDS011;5281;48.878;9.394;2024-03-17T02:03:29;6.43;;;5.77;;
10467;SDS011;5281;48.878;9.394;2024-03-17T02:05:57;7.20;;;6.50;;
10467;SDS011;5281;48.878;9.394;2024-03-17T02:08:23;6.27;;;5.67;;
10467;SDS011;5281;48.878;9.394;2024-03-17T02:10:52;10.87;;;6.30;;
10467;SDS011;5281;48.878;9.394;2024-03-17T02:13:18;6.10;;;5.50;;
10467;SDS011;5281;48.878;9.394;2024-03-17T02:15:45;6.23;;;5.63;;
10467;SDS011;5281;48.878;9.394;2024-03-17T02:18:11;6.30;;;5.70;;
10467;SDS011;5281;48.878;9.394;2024-03-17T02:20:37;6.37;;;5.30;;
10467;SDS011;5281;48.878;9.394;2024-03-17T02:23:25;7.97;;;6.10;;
10467;SDS011;5281;48.878;9.394;2024-03-17T02:25:52;7.27;;;5.80;;
10467;SDS011;5281;48.878;9.394;2024-03-17T02:28:18;6.00;;;5.40;;
10467;SDS011;5281;48.878;9.394;2024-03-17T02:30:44;6.60;;;5.87;;
10467;SDS011;5281;48.878;9.394;2024-03-17T02:33:10;6.07;;;5.47;;
10467;SDS011;5281;48.878;9.394;2024-03-17T02:35:37;5.33;;;4.83;;
10467;SDS011;5281;48.878;9.394;2024-03-17T02:38:03;5.73;;;5.23;;
10467;SDS011;5281;48.878;9.394;2024-03-17T02:40:31;7.67;;;5.40;;
10467;SDS011;5281;48.878;9.394;2024-03-17T02:42:57;5.80;;;5.20;;
10467;SDS011;5281;48.878;9.394;2024-03-17T02:45:24;5.67;;;5.10;;
10467;SDS011;5281;48.878;9.394;2024-03-17T02:47:50;6.37;;;5.73;;
10467;SDS011;5281;48.878;9.394;2024-03-17T02:50:17;6.37;;;5.30;;
10467;SDS011;5281;48.878;9.394;2024-03-17T02:52:43;6.67;;;5.27;;
10467;SDS011;5281;48.878;9.394;2024-03-17T02:55:10;6.23;;;5.63;;
10467;SDS011;5281;48.878;9.394;2024-03-17T02:57:38;6.43;;;4.97;;
10467;SDS011;5281;48.878;9.394;2024-03-17T03:00:06;5.40;;;4.90;;
10467;SDS011;5281;48.878;9.394;2024-03-17T03:02:38;5.17;;;4.67;;
10467;SDS011;5281;48.878;9.394;2024-03-17T03:05:05;5.13;;;4.50;;
10467;SDS011;5281;48.878;9.394;2024-03-17T03:07:32;5.27;;;4.70;;
10467;SDS011;5281;48.878;9.394;2024-03-17T03:09:59;5.30;;;4.80;;
10467;SDS011;5281;48.878;9.394;2024-03-17T03:12:25;6.43;;;5.03;;
10467;SDS011;5281;48.878;9.394;2024-03-17T03:14:53;5.73;;;4.57;;
10467;SDS011;5281;48.878;9.394;2024-03-17T03:17:20;4.80;;;4.30;;
10467;SDS011;5281;48.878;9.394;2024-03-17T03:19:46;5.10;;;4.53;;
10467;SDS011;5281;48.878;9.394;2024-03-17T03:22:13;5.97;;;4.53;;
10467;SDS011;5281;48.878;9.394;2024-03-17T03:24:40;4.70;;;4.30;;
10467;SDS011;5281;48.878;9.394;2024-03-17T03:27:07;6.07;;;4.87;;
10467;SDS011;5281;48.878;9.394;2024-03-17T03:29:34;5.67;;;4.90;;
10467;SDS011;5281;48.878;9.394;2024-03-17T03:32:02;5.97;;;4.47;;
10467;SDS011;5281;48.878;9.394;2024-03-17T03:34:28;5.13;;;4.63;;
10467;SDS011;5281;48.878;9.394;2024-03-17T03:36:55;5.20;;;4.70;;
10467;SDS011;5281;48.878;9.394;2024-03-17T03:39:22;5.27;;;4.77;;
10467;SDS011;5281;48.878;9.394;2024-03-17T03:41:50;5.17;;;4.67;;
10467;SDS011;5281;48.878;9.394;2024-03-17T03:44:17;5.03;;;4.53;;
10467;SDS011;5281;48.878;9.394;2024-03-17T03:46:44;5.23;;;4.73;;
10467;SDS011;5281;48.878;9.394;2024-03-17T03:49:13;6.00;;;4.67;;
10467;SDS011;5281;48.878;9.394;2024-03-17T03:51:39;5.80;;;4.70;;
10467;SDS011;5281;48.878;9.394;2024-03-17T03:54:06;5.23;;;4.67;;
10467;SDS011;5281;48.878;9.394;2024-03-17T03:56:33;5.60;;;4.77;;
10467;SDS011;5281;48.878;9.394;2024-03-17T03:58:59;6.57;;;5.13;;
10467;SDS011;5281;48.878;9.394;2024-03-17T04:01:26;5.73;;;5.10;;
10467;SDS011;5281;48.878;9.394;2024-03-17T04:03:53;6.20;;;5.60;;
10467;SDS011;5281;48.878;9.394;2024-03-17T04:06:21;5.50;;;5.00;;
10467;SDS011;5281;48.878;9.394;2024-03-17T04:08:48;5.80;;;5.20;;
10467;SDS011;5281;48.878;9.394;2024-03-17T04:11:14;6.43;;;5.13;;
10467;SDS011;5281;48.878;9.394;2024-03-17T04:13:41;5.60;;;5.10;;
10467;SDS011;5281;48.878;9.394;2024-03-17T04:16:08;5.67;;;5.17;;
10467;SDS011;5281;48.878;9.394;2024-03-17T04:18:35;5.63;;;5.03;;
10467;SDS011;5281;48.878;9.394;2024-03-17T04:21:03;6.50;;;4.70;;
10467;SDS011;5281;48.878;9.394;2024-03-17T04:23:33;5.37;;;4.87;;
10467;SDS011;5281;48.878;9.394;2024-03-17T04:26:01;5.73;;;4.87;;
10467;SDS011;5281;48.878;9.394;2024-03-17T04:28:29;5.53;;;5.03;;
10467;SDS011;5281;48.878;9.394;2024-03-17T04:31:02;5.73;;;5.13;;
10467;SDS011;5281;48.878;9.394;2024-03-17T04:33:29;5.90;;;5.27;;
10467;SDS011;5281;48.878;9.394;2024-03-17T04:35:56;6.43;;;5.83;;
10467;SDS011;5281;48.878;9.394;2024-03-17T04:38:23;6.80;;;5.43;;
10467;SDS011;5281;48.878;9.394;2024-03-17T04:40:51;6.33;;;5.73;;
10467;SDS011;5281;48.878;9.394;2024-03-17T04:43:24;7.13;;;5.80;;
10467;SDS011;5281;48.878;9.394;2024-03-17T04:45:58;7.43;;;5.83;;
10467;SDS011;5281;48.878;9.394;2024-03-17T04:48:26;6.67;;;5.50;;
10467;SDS011;5281;48.878;9.394;2024-03-17T04:50:53;6.07;;;5.30;;
10467;SDS011;5281;48.878;9.394;2024-03-17T04:53:20;4.77;;;4.27;;
10467;SDS011;5281;48.878;9.394;2024-03-17T04:55:46;4.60;;;4.10;;
10467;SDS011;5281;48.878;9.394;2024-03-17T04:58:14;4.53;;;4.10;;
10467;SDS011;5281;48.878;9.394;2024-03-17T05:00:41;4.63;;;4.10;;
10467;SDS011;5281;48.878;9.394;2024-03-17T05:03:08;4.60;;;4.13;;
10467;SDS011;5281;48.878;9.394;2024-03-17T05:05:34;4.50;;;3.77;;
10467;SDS011;5281;48.878;9.394;2024-03-17T05:08:01;4.00;;;3.60;;
10467;SDS011;5281;48.878;9.394;2024-03-17T05:10:28;4.00;;;3.60;;
10467;SDS011;5281;48.878;9.394;2024-03-17T05:12:55;5.33;;;3.70;;
10467;SDS011;5281;48.878;9.394;2024-03-17T05:15:23;7.63;;;3.73;;
10467;SDS011;5281;48.878;9.394;2024-03-17T05:17:49;3.77;;;3.37;;
10467;SDS011;5281;48.878;9.394;2024-03-17T05:20:16;4.20;;;3.70;;
10467;SDS011;5281;48.878;9.394;2024-03-17T05:22:43;9.50;;;7.37;;
10467;SDS011;5281;48.878;9.394;2024-03-17T05:25:11;14.97;;;10.67;;
10467;SDS011;5281;48.878;9.394;2024-03-17T05:27:39;4.80;;;4.30;;
10467;SDS011;5281;48.878;9.394;2024-03-17T05:30:06;5.33;;;4.23;;
10467;SDS011;5281;48.878;9.394;2024-03-17T05:32:35;6.03;;;5.10;;
10467;SDS011;5281;48.878;9.394;2024-03-17T05:35:03;5.07;;;4.57;;
10467;SDS011;5281;48.878;9.394;2024-03-17T05:37:30;5.50;;;4.57;;
10467;SDS011;5281;48.878;9.394;2024-03-17T05:39:57;5.17;;;4.67;;
10467;SDS011;5281;48.878;9.394;2024-03-17T05:42:24;5.83;;;5.10;;
10467;SDS011;5281;48.878;9.394;2024-03-17T05:44:51;5.63;;;4.97;;
10467;SDS011;5281;48.878;9.394;2024-03-17T05:47:18;5.30;;;4.80;;
10467;SDS011;5281;48.878;9.394;2024-03-17T05:49:46;6.73;;;5.47;;
10467;SDS011;5281;48.878;9.394;2024-03-17T05:52:13;6.10;;;5.10;;
10467;SDS011;5281;48.878;9.394;2024-03-17T05:54:39;12.07;;;8.60;;
10467;SDS011;5281;48.878;9.394;2024-03-17T05:57:06;6.47;;;5.10;;
10467;SDS011;5281;48.878;9.394;2024-03-17T05:59:34;6.60;;;5.90;;
10467;SDS011;5281;48.878;9.394;2024-03-17T06:02:01;5.30;;;4.60;;
10467;SDS011;5281;48.878;9.394;2024-03-17T06:04:27;6.27;;;5.33;;
10467;SDS011;5281;48.878;9.394;2024-03-17T06:06:55;5.77;;;5.17;;
10467;SDS011;5281;48.878;9.394;2024-03-17T06:09:22;5.17;;;4.67;;
10467;SDS011;5281;48.878;9.394;2024-03-17T06:11:49;5.40;;;4.80;;
10467;SDS011;5281;48.878;9.394;2024-03-17T06:14:16;6.97;;;5.90;;
10467;SDS011;5281;48.878;9.394;2024-03-17T06:16:43;5.87;;;5.27;;
10467;SDS011;5281;48.878;9.394;2024-03-17T06:19:10;5.40;;;4.90;;
10467;SDS011;5281;48.878;9.394;2024-03-17T06:21:37;6.23;;;4.67;;
10467;SDS011;5281;48.878;9.394;2024-03-17T06:24:06;5.90;;;4.70;;
10467;SDS011;5281;48.878;9.394;2024-03-17T06:26:33;5.97;;;5.37;;
10467;SDS011;5281;48.878;9.394;2024-03-17T06:29:00;5.43;;;4.93;;
10467;SDS011;5281;48.878;9.394;2024-03-17T06:31:27;6.03;;;5.43;;
10467;SDS011;5281;48.878;9.394;2024-03-17T06:33:54;5.90;;;4.80;;
10467;SDS011;5281;48.878;9.394;2024-03-17T06:36:20;5.60;;;5.00;;
10467;SDS011;5281;48.878;9.394;2024-03-17T06:38:47;6.63;;;5.37;;
10467;SDS011;5281;48.878;9.394;2024-03-17T06:41:15;6.20;;;4.73;;
10467;SDS011;5281;48.878;9.394;2024-03-17T06:43:42;5.43;;;4.53;;
10467;SDS011;5281;48.878;9.394;2024-03-17T06:46:09;5.07;;;4.57;;
10467;SDS011;5281;48.878;9.394;2024-03-17T06:48:36;5.57;;;4.97;;
10467;SDS011;5281;48.878;9.394;2024-03-17T06:51:02;5.40;;;4.57;;
10467;SDS011;5281;48.878;9.394;2024-03-17T06:53:30;5.27;;;4.30;;
10467;SDS011;5281;48.878;9.394;2024-03-17T06:55:59;4.63;;;4.23;;
10467;SDS011;5281;48.878;9.394;2024-03-17T06:58:27;5.20;;;4.23;;
10467;SDS011;5281;48.878;9.394;2024-03-17T07:00:54;4.43;;;4.03;;
10467;SDS011;5281;48.878;9.394;2024-03-17T07:03:22;4.72;;;3.83;;
10467;SDS011;5281;48.878;9.394;2024-03-17T07:05:51;4.35;;;3.90;;
10467;SDS011;5281;48.878;9.394;2024-03-17T07:08:19;3.88;;;3.58;;
10467;SDS011;5281;48.878;9.394;2024-03-17T07:10:54;6.68;;;3.50;;
10467;SDS011;5281;48.878;9.394;2024-03-17T07:13:22;4.75;;;4.10;;
10467;SDS011;5281;48.878;9.394;2024-03-17T07:15:50;5.80;;;3.92;;
10467;SDS011;5281;48.878;9.394;2024-03-17T07:18:16;5.57;;;3.85;;
10467;SDS011;5281;48.878;9.394;2024-03-17T07:20:43;5.05;;;3.85;;
10467;SDS011;5281;48.878;9.394;2024-03-17T07:23:12;4.53;;;4.10;;
10467;SDS011;5281;48.878;9.394;2024-03-17T07:25:39;3.92;;;3.53;;
10467;SDS011;5281;48.878;9.394;2024-03-17T07:28:06;4.10;;;3.70;;
10467;SDS011;5281;48.878;9.394;2024-03-17T07:30:32;3.83;;;3.45;;
10467;SDS011;5281;48.878;9.394;2024-03-17T07:33:01;4.70;;;3.53;;
10467;SDS011;5281;48.878;9.394;2024-03-17T07:35:28;4.30;;;3.47;;
10467;SDS011;5281;48.878;9.394;2024-03-17T07:37:55;3.97;;;3.28;;
10467;SDS011;5281;48.878;9.394;2024-03-17T07:40:21;4.72;;;4.03;;
10467;SDS011;5281;48.878;9.394;2024-03-17T07:42:48;5.45;;;3.47;;
10467;SDS011;5281;48.878;9.394;2024-03-17T07:45:15;3.83;;;3.40;;
10467;SDS011;5281;48.878;9.394;2024-03-17T07:47:42;4.10;;;3.70;;
10467;SDS011;5281;48.878;9.394;2024-03-17T07:50:10;4.18;;;3.55;;
10467;SDS011;5281;48.878;9.394;2024-03-17T07:52:37;4.25;;;3.53;;
10467;SDS011;5281;48.878;9.394;2024-03-17T07:55:04;4.25;;;3.85;;
10467;SDS011;5281;48.878;9.394;2024-03-17T07:57:34;5.68;;;4.25;;
10467;SDS011;5281;48.878;9.394;2024-03-17T08:00:01;5.22;;;4.50;;
10467;SDS011;5281;48.878;9.394;2024-03-17T08:02:28;5.00;;;4.55;;
10467;SDS011;5281;48.878;9.394;2024-03-17T08:04:55;5.37;;;4.20;;
10467;SDS011;5281;48.878;9.394;2024-03-17T08:07:23;6.13;;;3.93;;
10467;SDS011;5281;48.878;9.394;2024-03-17T08:09:49;4.30;;;3.80;;
10467;SDS011;5281;48.878;9.394;2024-03-17T08:12:16;4.30;;;3.90;;
10467;SDS011;5281;48.878;9.394;2024-03-17T08:14:43;5.70;;;4.10;;
10467;SDS011;5281;48.878;9.394;2024-03-17T08:17:09;6.03;;;4.00;;
10467;SDS011;5281;48.878;9.394;2024-03-17T08:19:36;5.73;;;4.00;;
10467;SDS011;5281;48.878;9.394;2024-03-17T08:22:04;5.67;;;4.33;;
10467;SDS011;5281;48.878;9.394;2024-03-17T08:24:32;6.03;;;3.70;;
10467;SDS011;5281;48.878;9.394;2024-03-17T08:26:59;4.97;;;4.20;;
10467;SDS011;5281;48.878;9.394;2024-03-17T08:29:26;5.03;;;4.03;;
10467;SDS011;5281;48.878;9.394;2024-03-17T08:31:53;4.30;;;3.70;;
10467;SDS011;5281;48.878;9.394;2024-03-17T08:34:19;4.60;;;3.60;;
10467;SDS011;5281;48.878;9.394;2024-03-17T08:36:46;15.33;;;12.37;;
10467;SDS011;5281;48.878;9.394;2024-03-17T08:39:12;15.53;;;13.47;;
10467;SDS011;5281;48.878;9.394;2024-03-17T08:41:40;6.27;;;4.87;;
10467;SDS011;5281;48.878;9.394;2024-03-17T08:44:09;10.10;;;8.57;;
10467;SDS011;5281;48.878;9.394;2024-03-17T08:46:36;4.67;;;4.20;;
10467;SDS011;5281;48.878;9.394;2024-03-17T08:49:03;4.90;;;3.83;;
10467;SDS011;5281;48.878;9.394;2024-03-17T08:51:30;4.10;;;3.40;;
10467;SDS011;5281;48.878;9.394;2024-03-17T08:53:57;3.83;;;3.10;;
10467;SDS011;5281;48.878;9.394;2024-03-17T08:56:23;4.10;;;3.10;;
10467;SDS011;5281;48.878;9.394;2024-03-17T08:58:51;5.27;;;3.60;;
10467;SDS011;5281;48.878;9.394;2024-03-17T09:01:18;4.07;;;3.67;;
10467;SDS011;5281;48.878;9.394;2024-03-17T09:03:45;3.63;;;3.33;;
10467;SDS011;5281;48.878;9.394;2024-03-17T09:06:14;4.65;;;3.35;;
10467;SDS011;5281;48.878;9.394;2024-03-17T09:08:43;3.50;;;3.20;;
10467;SDS011;5281;48.878;9.394;2024-03-17T09:11:11;4.55;;;3.10;;
10467;SDS011;5281;48.878;9.394;2024-03-17T09:13:39;3.47;;;3.13;;
10467;SDS011;5281;48.878;9.394;2024-03-17T09:16:07;3.30;;;2.97;;
10467;SDS011;5281;48.878;9.394;2024-03-17T09:18:36;3.60;;;2.63;;
10467;SDS011;5281;48.878;9.394;2024-03-17T09:21:04;5.22;;;3.78;;
10467;SDS011;5281;48.878;9.394;2024-03-17T09:23:32;4.00;;;2.88;;
10467;SDS011;5281;48.878;9.394;2024-03-17T09:26:00;5.05;;;3.03;;
10467;SDS011;5281;48.878;9.394;2024-03-17T09:28:28;3.88;;;3.38;;
10467;SDS011;5281;48.878;9.394;2024-03-17T09:30:55;11.65;;;10.45;;
10467;SDS011;5281;48.878;9.394;2024-03-17T09:33:24;4.05;;;2.83;;
10467;SDS011;5281;48.878;9.394;2024-03-17T09:35:54;3.58;;;2.90;;
10467;SDS011;5281;48.878;9.394;2024-03-17T09:38:22;3.17;;;2.80;;
10467;SDS011;5281;48.878;9.394;2024-03-17T09:40:49;3.65;;;2.58;;
10467;SDS011;5281;48.878;9.394;2024-03-17T09:43:18;2.80;;;2.55;;
10467;SDS011;5281;48.878;9.394;2024-03-17T09:45:45;3.60;;;2.80;;
10467;SDS011;5281;48.878;9.394;2024-03-17T09:48:13;3.50;;;2.75;;
10467;SDS011;5281;48.878;9.394;2024-03-17T09:50:43;4.72;;;2.78;;
10467;SDS011;5281;48.878;9.394;2024-03-17T09:53:16;3.53;;;2.53;;
10467;SDS011;5281;48.878;9.394;2024-03-17T09:55:48;4.43;;;2.75;;
10467;SDS011;5281;48.878;9.394;2024-03-17T09:58:15;3.42;;;2.70;;
10467;SDS011;5281;48.878;9.394;2024-03-17T10:00:42;3.40;;;2.58;;
10467;SDS011;5281;48.878;9.394;2024-03-17T10:03:09;2.53;;;2.33;;
10467;SDS011;5281;48.878;9.394;2024-03-17T10:05:36;3.35;;;2.67;;
10467;SDS011;5281;48.878;9.394;2024-03-17T10:08:05;3.13;;;2.50;;
10467;SDS011;5281;48.878;9.394;2024-03-17T10:10:33;3.58;;;2.70;;
10467;SDS011;5281;48.878;9.394;2024-03-17T10:13:00;4.70;;;2.97;;
10467;SDS011;5281;48.878;9.394;2024-03-17T10:15:27;3.08;;;2.70;;
10467;SDS011;5281;48.878;9.394;2024-03-17T10:17:54;3.03;;;2.58;;
10467;SDS011;5281;48.878;9.394;2024-03-17T10:20:21;3.28;;;2.78;;
10467;SDS011;5281;48.878;9.394;2024-03-17T10:22:57;3.47;;;2.60;;
10467;SDS011;5281;48.878;9.394;2024-03-17T10:25:25;4.45;;;2.55;;
10467;SDS011;5281;48.878;9.394;2024-03-17T10:27:52;4.45;;;2.75;;
10467;SDS011;5281;48.878;9.394;2024-03-17T10:30:20;3.42;;;2.30;;
10467;SDS011;5281;48.878;9.394;2024-03-17T10:32:52;2.72;;;2.40;;
10467;SDS011;5281;48.878;9.394;2024-03-17T10:35:27;3.92;;;2.53;;
10467;SDS011;5281;48.878;9.394;2024-03-17T10:37:55;4.65;;;2.42;;
10467;SDS011;5281;48.878;9.394;2024-03-17T10:40:23;4.28;;;2.30;;
10467;SDS011;5281;48.878;9.394;2024-03-17T10:42:52;4.00;;;2.65;;
10467;SDS011;5281;48.878;9.394;2024-03-17T10:45:20;3.35;;;2.40;;
10467;SDS011;5281;48.878;9.394;2024-03-17T10:47:48;3.42;;;2.33;;
10467;SDS011;5281;48.878;9.394;2024-03-17T10:50:16;3.97;;;2.58;;
10467;SDS011;5281;48.878;9.394;2024-03-17T10:52:45;3.65;;;2.10;;
10467;SDS011;5281;48.878;9.394;2024-03-17T10:55:19;4.15;;;2.53;;
10467;SDS011;5281;48.878;9.394;2024-03-17T10:57:49;3.72;;;2.60;;
10467;SDS011;5281;48.878;9.394;2024-03-17T11:00:16;2.67;;;2.40;;
10467;SDS011;5281;48.878;9.394;2024-03-17T11:02:47;3.55;;;2.30;;
10467;SDS011;5281;48.878;9.394;2024-03-17T11:05:17;6.50;;;4.25;;
10467;SDS011;5281;48.878;9.394;2024-03-17T11:07:46;4.10;;;3.08;;
10467;SDS011;5281;48.878;9.394;2024-03-17T11:10:18;3.30;;;2.45;;
10467;SDS011;5281;48.878;9.394;2024-03-17T11:12:47;3.97;;;2.88;;
10467;SDS011;5281;48.878;9.394;2024-03-17T11:20:58;3.85;;;2.20;;
10467;SDS011;5281;48.878;9.394;2024-03-17T11:23:27;2.83;;;2.28;;
10467;SDS011;5281;48.878;9.394;2024-03-17T11:25:55;5.35;;;3.60;;
10467;SDS011;5281;48.878;9.394;2024-03-17T11:31:35;3.05;;;2.55;;
10467;SDS011;5281;48.878;9.394;2024-03-17T11:36:58;4.03;;;2.80;;
10467;SDS011;5281;48.878;9.394;2024-03-17T11:42:20;3.67;;;2.63;;
10467;SDS011;5281;48.878;9.394;2024-03-17T11:47:38;2.95;;;1.95;;
10467;SDS011;5281;48.878;9.394;2024-03-17T11:50:07;5.13;;;4.57;;
10467;SDS011;5281;48.878;9.394;2024-03-17T11:52:35;4.70;;;2.60;;
10467;SDS011;5281;48.878;9.394;2024-03-17T11:55:02;4.60;;;2.67;;
10467;SDS011;5281;48.878;9.394;2024-03-17T11:57:28;3.03;;;2.05;;
10467;SDS011;5281;48.878;9.394;2024-03-17T11:59:55;4.88;;;2.85;;
10467;SDS011;5281;48.878;9.394;2024-03-17T12:02:24;4.45;;;2.45;;
10467;SDS011;5281;48.878;9.394;2024-03-17T12:04:52;3.92;;;2.60;;
10467;SDS011;5281;48.878;9.394;2024-03-17T12:07:19;5.07;;;3.72;;
10467;SDS011;5281;48.878;9.394;2024-03-17T12:09:48;2.67;;;2.35;;
10467;SDS011;5281;48.878;9.394;2024-03-17T12:12:16;4.07;;;2.40;;
10467;SDS011;5281;48.878;9.394;2024-03-17T12:14:44;3.42;;;2.20;;
10467;SDS011;5281;48.878;9.394;2024-03-17T12:17:10;2.78;;;2.05;;
10467;SDS011;5281;48.878;9.394;2024-03-17T12:19:40;5.70;;;2.17;;
10467;SDS011;5281;48.878;9.394;2024-03-17T12:22:09;3.78;;;2.25;;
10467;SDS011;5281;48.878;9.394;2024-03-17T12:24:42;2.60;;;2.35;;
10467;SDS011;5281;48.878;9.394;2024-03-17T12:27:09;3.67;;;2.00;;
10467;SDS011;5281;48.878;9.394;2024-03-17T12:29:43;2.28;;;1.95;;
10467;SDS011;5281;48.878;9.394;2024-03-17T12:32:11;2.95;;;2.30;;
10467;SDS011;5281;48.878;9.394;2024-03-17T12:34:42;3.47;;;2.40;;
10467;SDS011;5281;48.878;9.394;2024-03-17T12:37:11;3.78;;;2.40;;
10467;SDS011;5281;48.878;9.394;2024-03-17T12:39:43;3.20;;;2.17;;
10467;SDS011;5281;48.878;9.394;2024-03-17T12:42:10;4.15;;;2.40;;
10467;SDS011;5281;48.878;9.394;2024-03-17T12:44:38;2.97;;;2.10;;
10467;SDS011;5281;48.878;9.394;2024-03-17T12:47:07;3.88;;;2.20;;
10467;SDS011;5281;48.878;9.394;2024-03-17T12:49:43;2.97;;;2.38;;
10467;SDS011;5281;48.878;9.394;2024-03-17T12:52:17;2.72;;;2.10;;
10467;SDS011;5281;48.878;9.394;2024-03-17T12:54:44;4.13;;;3.42;;
10467;SDS011;5281;48.878;9.394;2024-03-17T12:57:19;4.32;;;2.28;;
10467;SDS011;5281;48.878;9.394;2024-03-17T13:00:16;3.75;;;2.20;;
10467;SDS011;5281;48.878;9.394;2024-03-17T13:02:59;3.13;;;1.98;;
10467;SDS011;5281;48.878;9.394;2024-03-17T13:05:27;3.75;;;2.10;;
10467;SDS011;5281;48.878;9.394;2024-03-17T13:07:54;5.32;;;2.50;;
10467;SDS011;5281;48.878;9.394;2024-03-17T13:10:21;2.40;;;2.00;;
10467;SDS011;5281;48.878;9.394;2024-03-17T13:12:57;2.63;;;2.10;;
10467;SDS011;5281;48.878;9.394;2024-03-17T13:15:24;2.08;;;1.88;;
10467;SDS011;5281;48.878;9.394;2024-03-17T13:17:51;3.80;;;2.28;;
10467;SDS011;5281;48.878;9.394;2024-03-17T13:20:18;2.30;;;2.03;;
10467;SDS011;5281;48.878;9.394;2024-03-17T13:22:46;3.92;;;2.65;;
10467;SDS011;5281;48.878;9.394;2024-03-17T13:25:13;3.58;;;2.28;;
10467;SDS011;5281;48.878;9.394;2024-03-17T13:27:42;5.00;;;2.25;;
10467;SDS011;5281;48.878;9.394;2024-03-17T13:30:10;2.75;;;2.05;;
10467;SDS011;5281;48.878;9.394;2024-03-17T13:32:37;4.82;;;2.25;;
10467;SDS011;5281;48.878;9.394;2024-03-17T13:35:05;2.88;;;2.53;;
10467;SDS011;5281;48.878;9.394;2024-03-17T13:37:33;4.40;;;2.58;;
10467;SDS011;5281;48.878;9.394;2024-03-17T13:40:01;3.40;;;2.40;;
10467;SDS011;5281;48.878;9.394;2024-03-17T13:42:30;13.05;;;9.80;;
10467;SDS011;5281;48.878;9.394;2024-03-17T13:44:57;5.43;;;2.97;;
10467;SDS011;5281;48.878;9.394;2024-03-17T13:47:24;4.95;;;2.55;;
10467;SDS011;5281;48.878;9.394;2024-03-17T13:49:51;2.80;;;2.20;;
10467;SDS011;5281;48.878;9.394;2024-03-17T13:52:17;5.40;;;2.20;;
10467;SDS011;5281;48.878;9.394;2024-03-17T13:54:44;4.38;;;2.45;;
10467;SDS011;5281;48.878;9.394;2024-03-17T13:57:12;3.38;;;2.05;;
10467;SDS011;5281;48.878;9.394;2024-03-17T13:59:40;3.03;;;2.20;;
10467;SDS011;5281;48.878;9.394;2024-03-17T14:02:07;3.45;;;2.20;;
10467;SDS011;5281;48.878;9.394;2024-03-17T14:04:38;4.10;;;2.30;;
10467;SDS011;5281;48.878;9.394;2024-03-17T14:07:05;3.40;;;2.22;;
10467;SDS011;5281;48.878;9.394;2024-03-17T14:09:31;4.45;;;2.38;;
10467;SDS011;5281;48.878;9.394;2024-03-17T14:11:58;4.07;;;2.20;;
10467;SDS011;5281;48.878;9.394;2024-03-17T14:14:26;3.88;;;2.75;;
10467;SDS011;5281;48.878;9.394;2024-03-17T14:16:53;4.97;;;2.20;;
10467;SDS011;5281;48.878;9.394;2024-03-17T14:19:19;4.20;;;2.25;;
10467;SDS011;5281;48.878;9.394;2024-03-17T14:21:46;3.00;;;2.30;;
10467;SDS011;5281;48.878;9.394;2024-03-17T14:24:13;7.75;;;4.90;;
10467;SDS011;5281;48.878;9.394;2024-03-17T14:26:39;4.90;;;2.70;;
10467;SDS011;5281;48.878;9.394;2024-03-17T14:29:06;2.92;;;2.10;;
10467;SDS011;5281;48.878;9.394;2024-03-17T14:31:34;3.53;;;2.13;;
10467;SDS011;5281;48.878;9.394;2024-03-17T14:34:02;5.53;;;2.83;;
10467;SDS011;5281;48.878;9.394;2024-03-17T14:36:30;2.50;;;1.90;;
10467;SDS011;5281;48.878;9.394;2024-03-17T14:38:58;3.28;;;2.63;;
10467;SDS011;5281;48.878;9.394;2024-03-17T14:41:27;3.20;;;2.30;;
10467;SDS011;5281;48.878;9.394;2024-03-17T14:43:54;3.22;;;2.15;;
10467;SDS011;5281;48.878;9.394;2024-03-17T14:46:20;3.40;;;1.85;;
10467;SDS011;5281;48.878;9.394;2024-03-17T14:48:49;2.47;;;2.20;;
10467;SDS011;5281;48.878;9.394;2024-03-17T14:51:16;2.33;;;1.95;;
10467;SDS011;5281;48.878;9.394;2024-03-17T14:53:42;3.78;;;2.20;;
10467;SDS011;5281;48.878;9.394;2024-03-17T14:56:13;6.60;;;4.85;;
10467;SDS011;5281;48.878;9.394;2024-03-17T14:58:41;5.13;;;4.20;;
10467;SDS011;5281;48.878;9.394;2024-03-17T15:01:08;3.35;;;2.78;;
10467;SDS011;5281;48.878;9.394;2024-03-17T15:03:35;5.78;;;2.17;;
10467;SDS011;5281;48.878;9.394;2024-03-17T15:06:03;4.45;;;1.95;;
10467;SDS011;5281;48.878;9.394;2024-03-17T15:08:30;3.97;;;2.20;;
10467;SDS011;5281;48.878;9.394;2024-03-17T15:10:56;2.95;;;1.90;;
10467;SDS011;5281;48.878;9.394;2024-03-17T15:13:24;3.78;;;2.30;;
10467;SDS011;5281;48.878;9.394;2024-03-17T15:15:51;3.22;;;2.03;;
10467;SDS011;5281;48.878;9.394;2024-03-17T15:18:19;4.28;;;2.08;;
10467;SDS011;5281;48.878;9.394;2024-03-17T15:20:50;3.75;;;2.00;;